Hlavní strana
METAR-TAF:

METAR-TAF

Letiště :

Fort Simpson, Severozápadní teritoria, Kanada

zeměpisná šířka: 61-45N, zeměpisná délka: 121-14W, výška: 168 m

Aktuální stav počasí

Zpráva byla vytvořena před 25 hodinami a 16 minutami, v 00:00 UTC
vítr z různých směrů 3 kt
Teplota 24°C
Vlhkost vzduchu 34%
Tlak 1014 hPa
Viditelnost: 24.1 km
Skoro jasno ve výšce 12000 ft
Oblačno až skoro zataženo ve výšce 21000 ft

METAR: CYFS 210000Z VRB03KT 15SM FEW120 BKN210 24/07 A2995 RMK AC1CI4 SLP150 DENSITY ALT 1800FT

Čas: 19:16 (01:16 UTC)

Předpověď počasí

Zpráva byla vytvořena před 7 hodinami a 37 minutami, v 17:39 UTC
Předpověď platná od 20 v 18 UTC do 21 v 06 UTC
vítr z různých směrů 3 kt
Viditelnost: 10 km
Polojasno ve výšce 12000 ft
Oblačno až skoro zataženo ve výšce 21000 ft

TAF: CYFS 201739Z 2018/2106 VRB03KT P6SM SCT120 BKN210 RMK NXT FCST BY 210000Z

Stav a předpovědi počasí z více než 4 000 letišť (zprávy METAR a TAF).

Červené a žluté tečky na mapě představují dostupné meteorologické stanice.

Když kurzor umístíte na tečku, zobrazí se název stanice.

Pak kliknutím zobrazíte stav a předpověď počasí.

Chcete-li změnit mapu, kliknutím na zelené tlačítko se znaménkem +mapu přiblížíte, kliknutím na zelené tlačítko se znaménkem – mapu oddálíte a kliknutím na zelené šipky přejdete na sousední mapy.


METAR-TAF: